Time;durP1;ratioP1;P1;durP2;ratioP2;P2;SDS_P1;SDS_P2;PMS_P1;PMS_P2;Temp;Humidity;BMP_temperature;BMP_pressure;BME280_temperature;BME280_humidity;BME280_pressure;Samples;Min_cycle;Max_cycle;Signal;HPM_P1;HPM_P2
2023/09/07 00:00:14;;;;;;;3.92;3.13;;;17.30;99.90;;;;;;4963100;28;20022;-75
2023/09/07 00:02:40;;;;;;;5.57;3.90;;;17.30;99.90;;;;;;4962622;28;20022;-76
2023/09/07 00:05:07;;;;;;;3.05;2.60;;;17.20;99.90;;;;;;4991509;28;20031;-75
2023/09/07 00:07:33;;;;;;;5.30;3.75;;;17.20;99.90;;;;;;4996455;28;20137;-75
2023/09/07 00:09:59;;;;;;;6.32;3.90;;;17.20;99.90;;;;;;4994514;28;20506;-75
2023/09/07 00:12:26;;;;;;;5.85;3.80;;;17.10;99.90;;;;;;4965889;28;20058;-74
2023/09/07 00:14:54;;;;;;;5.88;3.55;;;17.10;99.90;;;;;;4966586;28;20027;-74
2023/09/07 00:17:20;;;;;;;5.32;3.85;;;17.10;99.90;;;;;;4962538;28;20035;-72
2023/09/07 00:19:50;;;;;;;4.63;3.78;;;17.10;99.90;;;;;;4986479;28;20042;-72
2023/09/07 00:22:17;;;;;;;7.80;3.72;;;17.00;99.90;;;;;;4967610;28;20868;-73
2023/09/07 00:24:43;;;;;;;7.47;4.20;;;17.00;99.90;;;;;;4985473;28;20050;-73
2023/09/07 00:27:11;;;;;;;7.97;3.75;;;16.90;99.90;;;;;;4965008;28;20042;-74
2023/09/07 00:29:37;;;;;;;4.50;3.42;;;16.90;99.90;;;;;;4968487;28;20038;-73
2023/09/07 00:32:03;;;;;;;5.97;4.07;;;16.90;99.90;;;;;;4963094;28;20061;-76
2023/09/07 00:34:29;;;;;;;7.07;4.30;;;16.80;99.90;;;;;;4976292;28;20034;-73
2023/09/07 00:36:54;;;;;;;7.60;3.70;;;16.80;99.90;;;;;;4969790;28;20027;-74
2023/09/07 00:39:20;;;;;;;5.93;3.92;;;16.80;99.90;;;;;;4965032;28;20027;-73
2023/09/07 00:41:46;;;;;;;5.47;4.35;;;16.80;99.90;;;;;;4983842;28;20027;-74
2023/09/07 00:44:11;;;;;;;7.40;4.22;;;16.80;99.90;;;;;;4974154;28;20030;-73
2023/09/07 00:46:37;;;;;;;10.35;4.32;;;16.70;99.90;;;;;;4970375;28;20043;-75
2023/09/07 00:49:04;;;;;;;5.70;3.78;;;16.70;99.90;;;;;;4966160;28;20028;-76
2023/09/07 00:51:31;;;;;;;4.63;3.13;;;16.70;99.90;;;;;;4967179;28;20031;-74
2023/09/07 00:53:57;;;;;;;5.72;3.20;;;16.60;99.90;;;;;;4964580;28;20045;-73
2023/09/07 00:56:26;;;;;;;6.03;3.35;;;16.60;99.90;;;;;;4953819;28;20556;-75
2023/09/07 00:58:54;;;;;;;5.30;3.65;;;16.60;99.90;;;;;;5000439;28;20124;-76
2023/09/07 01:01:21;;;;;;;3.83;3.05;;;16.60;99.90;;;;;;4967138;28;20020;-75
2023/09/07 01:03:50;;;;;;;5.53;3.22;;;16.60;99.90;;;;;;4962020;28;20019;-75
2023/09/07 01:06:26;;;;;;;6.53;3.22;;;16.50;99.90;;;;;;5004985;28;20394;-77
2023/09/07 01:08:57;;;;;;;4.20;2.95;;;16.60;99.90;;;;;;4983544;28;20029;-76
2023/09/07 01:11:23;;;;;;;7.57;3.15;;;16.50;99.90;;;;;;4979161;28;20077;-73
2023/09/07 01:13:52;;;;;;;6.32;3.33;;;16.50;99.90;;;;;;4969400;28;20034;-75
2023/09/07 01:16:20;;;;;;;4.90;3.03;;;16.50;99.90;;;;;;4970385;28;20114;-73
2023/09/07 01:18:47;;;;;;;5.00;2.90;;;16.50;99.90;;;;;;4970085;28;20027;-74
2023/09/07 01:21:57;;;;;;;7.20;3.45;;;16.50;99.90;;;;;;4950203;28;20578;-73
2023/09/07 01:24:23;;;;;;;3.17;2.22;;;16.50;99.90;;;;;;4962541;28;20097;-76
2023/09/07 01:26:49;;;;;;;3.72;2.60;;;16.50;99.90;;;;;;4970977;28;20030;-76
2023/09/07 01:29:18;;;;;;;4.18;3.40;;;16.50;99.90;;;;;;4966397;28;20026;-75
2023/09/07 01:31:44;;;;;;;5.63;3.15;;;16.50;99.90;;;;;;4996628;28;20035;-76
2023/09/07 01:34:09;;;;;;;3.35;2.63;;;16.50;99.90;;;;;;4995867;28;20034;-76
2023/09/07 01:36:35;;;;;;;5.32;2.67;;;16.50;99.90;;;;;;4964955;28;20141;-76
2023/09/07 01:39:03;;;;;;;4.38;3.08;;;16.40;99.90;;;;;;4966442;28;20504;-76
2023/09/07 01:41:29;;;;;;;5.35;3.47;;;16.40;99.90;;;;;;4955052;28;20034;-75
2023/09/07 01:43:55;;;;;;;5.47;3.63;;;16.40;99.90;;;;;;4959614;28;20118;-75
2023/09/07 01:46:21;;;;;;;5.50;3.10;;;16.30;99.90;;;;;;4960086;28;20035;-74
2023/09/07 01:48:46;;;;;;;5.65;3.10;;;16.30;99.90;;;;;;4964282;28;20082;-75
2023/09/07 01:51:12;;;;;;;4.13;3.20;;;16.30;99.90;;;;;;4963441;28;20031;-76
2023/09/07 01:53:37;;;;;;;5.38;3.35;;;16.30;99.90;;;;;;4956820;28;20039;-76
2023/09/07 01:56:03;;;;;;;5.90;3.28;;;16.30;99.90;;;;;;4989006;28;20145;-76
2023/09/07 01:58:29;;;;;;;5.05;3.83;;;16.30;99.90;;;;;;4962836;28;20844;-76
2023/09/07 02:01:01;;;;;;;5.78;3.72;;;16.20;99.90;;;;;;4963827;28;20042;-76
2023/09/07 02:03:27;;;;;;;9.20;4.15;;;16.20;99.90;;;;;;4964896;28;20190;-76
2023/09/07 02:05:55;;;;;;;6.00;3.67;;;16.10;99.90;;;;;;4994550;28;23864;-76
2023/09/07 02:08:21;;;;;;;5.15;3.42;;;16.10;99.90;;;;;;4960479;28;20035;-76
2023/09/07 02:10:47;;;;;;;5.25;3.53;;;16.00;99.90;;;;;;4962227;28;20038;-76
2023/09/07 02:13:12;;;;;;;5.18;3.75;;;16.00;99.90;;;;;;4964335;28;20090;-75
2023/09/07 02:15:38;;;;;;;7.03;3.65;;;16.00;99.90;;;;;;4965732;28;20110;-76
2023/09/07 02:18:05;;;;;;;6.30;3.33;;;16.00;99.90;;;;;;4967555;28;20033;-76
2023/09/07 02:20:32;;;;;;;4.72;3.40;;;16.00;99.90;;;;;;4967007;28;20126;-76
2023/09/07 02:22:57;;;;;;;6.50;3.47;;;15.90;99.90;;;;;;4963081;28;20027;-75
2023/09/07 02:25:24;;;;;;;7.25;3.70;;;15.90;99.90;;;;;;4966113;28;20570;-75
2023/09/07 02:27:49;;;;;;;4.53;3.75;;;15.90;99.90;;;;;;4964354;28;20053;-75
2023/09/07 02:30:15;;;;;;;6.72;3.83;;;15.90;99.90;;;;;;4994286;28;20062;-74
2023/09/07 02:32:44;;;;;;;7.65;3.90;;;15.80;99.90;;;;;;4964388;28;20031;-75
2023/09/07 02:35:09;;;;;;;4.97;3.50;;;15.80;99.90;;;;;;4960809;28;20095;-76
2023/09/07 02:37:38;;;;;;;8.45;3.67;;;15.80;99.90;;;;;;4964203;28;20046;-75
2023/09/07 02:40:08;;;;;;;5.82;3.45;;;15.80;99.90;;;;;;4964137;28;20034;-75
2023/09/07 02:42:34;;;;;;;6.32;3.28;;;15.80;99.90;;;;;;4980496;28;20019;-74
2023/09/07 02:44:59;;;;;;;3.90;3.30;;;15.80;99.90;;;;;;4966943;28;20921;-75
2023/09/07 02:47:25;;;;;;;5.40;3.47;;;15.80;99.90;;;;;;4976569;28;20379;-74
2023/09/07 02:49:51;;;;;;;5.32;3.40;;;15.80;99.90;;;;;;4966620;28;20031;-75
2023/09/07 02:52:16;;;;;;;4.45;3.38;;;15.70;99.90;;;;;;4964125;28;20106;-74
2023/09/07 02:54:42;;;;;;;5.75;3.55;;;15.70;99.90;;;;;;4963748;28;20386;-75
2023/09/07 02:57:08;;;;;;;5.65;3.50;;;15.70;99.90;;;;;;4960705;28;20038;-75
2023/09/07 02:59:33;;;;;;;6.93;3.85;;;15.70;99.90;;;;;;4965250;28;20134;-77
2023/09/07 03:01:59;;;;;;;5.15;3.42;;;15.70;99.90;;;;;;4966398;28;20062;-77
2023/09/07 03:04:24;;;;;;;3.83;3.40;;;15.70;99.90;;;;;;4969071;28;20063;-77
2023/09/07 03:06:50;;;;;;;5.20;3.70;;;15.70;99.90;;;;;;4999123;28;20027;-77
2023/09/07 03:09:16;;;;;;;5.15;3.40;;;15.70;99.90;;;;;;4973962;28;20034;-77
2023/09/07 03:11:41;;;;;;;5.43;3.67;;;15.70;99.90;;;;;;4973804;28;20023;-77
2023/09/07 03:14:07;;;;;;;7.82;3.53;;;15.70;99.90;;;;;;4971087;28;20038;-76
2023/09/07 03:16:33;;;;;;;4.35;2.95;;;15.70;99.90;;;;;;4983767;28;20123;-77
2023/09/07 03:18:58;;;;;;;7.13;3.53;;;15.70;99.90;;;;;;4968121;28;20054;-78
2023/09/07 03:21:29;;;;;;;5.22;3.42;;;15.70;99.90;;;;;;4977311;28;20504;-77
2023/09/07 03:23:56;;;;;;;4.40;3.35;;;15.70;99.90;;;;;;4990687;28;20038;-77
2023/09/07 03:26:21;;;;;;;5.18;3.50;;;15.70;99.90;;;;;;4987608;28;20099;-78
2023/09/07 03:28:47;;;;;;;4.60;3.08;;;15.70;99.90;;;;;;4971994;28;20097;-77
2023/09/07 03:31:12;;;;;;;4.38;3.30;;;15.70;99.90;;;;;;4973104;28;20563;-78
2023/09/07 03:33:38;;;;;;;6.60;3.90;;;15.70;99.90;;;;;;4968131;28;20030;-77
2023/09/07 03:36:04;;;;;;;5.28;3.90;;;15.70;99.90;;;;;;4996094;28;20035;-78
2023/09/07 03:38:30;;;;;;;4.40;3.58;;;15.70;99.90;;;;;;4978966;28;20078;-78
2023/09/07 03:40:55;;;;;;;5.20;3.55;;;15.60;99.90;;;;;;5004962;28;20019;-77
2023/09/07 03:43:21;;;;;;;5.45;3.50;;;15.60;99.90;;;;;;4981952;28;20027;-78
2023/09/07 03:45:47;;;;;;;4.53;3.72;;;15.60;99.90;;;;;;4973635;28;20019;-78
2023/09/07 03:48:12;;;;;;;7.05;4.15;;;15.50;99.90;;;;;;4975848;28;20039;-78
2023/09/07 03:50:38;;;;;;;6.57;4.15;;;15.50;99.90;;;;;;4995892;28;20046;-77
2023/09/07 03:53:03;;;;;;;6.18;3.85;;;15.50;99.90;;;;;;4977424;28;20042;-78
2023/09/07 03:55:29;;;;;;;7.90;4.80;;;15.50;99.90;;;;;;4976822;28;20039;-78
2023/09/07 03:57:55;;;;;;;8.50;4.70;;;15.50;99.90;;;;;;4975000;28;20035;-78
2023/09/07 04:00:20;;;;;;;10.15;4.85;;;15.40;99.90;;;;;;4978175;28;20030;-77
2023/09/07 04:02:46;;;;;;;7.72;4.55;;;15.40;99.90;;;;;;4976314;28;20066;-78
2023/09/07 04:05:12;;;;;;;7.93;4.80;;;15.30;99.90;;;;;;4971681;28;20023;-78
2023/09/07 04:07:38;;;;;;;8.55;4.88;;;15.20;99.90;;;;;;4991846;28;20037;-78
2023/09/07 04:10:05;;;;;;;7.45;4.43;;;15.20;99.90;;;;;;4975621;28;20039;-77
2023/09/07 04:12:31;;;;;;;8.23;4.78;;;15.10;99.90;;;;;;4973828;28;20323;-78
2023/09/07 04:14:56;;;;;;;5.95;4.22;;;15.10;99.90;;;;;;4973233;28;21481;-77
2023/09/07 04:17:22;;;;;;;8.07;5.00;;;15.10;99.90;;;;;;4973051;28;20031;-77
2023/09/07 04:19:48;;;;;;;9.48;4.53;;;15.10;99.90;;;;;;4971568;28;20109;-77
2023/09/07 04:22:13;;;;;;;7.05;4.40;;;15.10;99.90;;;;;;4971032;28;20035;-77
2023/09/07 04:24:39;;;;;;;9.35;5.88;;;15.10;99.90;;;;;;4972921;28;20023;-77
2023/09/07 04:27:05;;;;;;;7.10;5.10;;;15.10;99.90;;;;;;4976057;28;20093;-77
2023/09/07 04:29:30;;;;;;;7.97;5.20;;;15.10;99.90;;;;;;4971139;28;20110;-77
2023/09/07 04:31:56;;;;;;;10.27;5.50;;;15.00;99.90;;;;;;4971637;28;20035;-77
2023/09/07 04:34:22;;;;;;;7.53;5.13;;;15.00;99.90;;;;;;4972002;28;20027;-77
2023/09/07 04:36:48;;;;;;;9.85;4.85;;;15.00;99.90;;;;;;4974503;28;20042;-77
2023/09/07 04:39:14;;;;;;;12.35;5.22;;;15.00;99.90;;;;;;4971143;28;20470;-77
2023/09/07 04:41:40;;;;;;;8.15;4.85;;;14.90;99.90;;;;;;4994745;28;20088;-77
2023/09/07 04:44:06;;;;;;;8.23;4.82;;;14.90;99.90;;;;;;4969015;28;20409;-77
2023/09/07 04:46:31;;;;;;;8.75;5.70;;;14.90;99.90;;;;;;4973751;28;20035;-77
2023/09/07 04:48:57;;;;;;;9.20;5.32;;;14.80;99.90;;;;;;4971482;28;20054;-77
2023/09/07 04:51:23;;;;;;;7.05;4.53;;;14.80;99.90;;;;;;4968980;28;20030;-77
2023/09/07 04:53:49;;;;;;;7.68;5.47;;;14.80;99.90;;;;;;4970608;28;20054;-77
2023/09/07 04:56:16;;;;;;;9.07;5.10;;;14.80;99.90;;;;;;4972522;28;20367;-78
2023/09/07 04:58:42;;;;;;;8.82;4.93;;;14.70;99.90;;;;;;5003255;28;20055;-77
2023/09/07 05:01:12;;;;;;;7.72;5.15;;;14.70;99.90;;;;;;4969276;28;20047;-77
2023/09/07 05:03:39;;;;;;;6.88;4.75;;;14.60;99.90;;;;;;4963208;28;20800;-76
2023/09/07 05:06:07;;;;;;;8.60;6.07;;;14.60;99.90;;;;;;4965301;28;20071;-77
2023/09/07 05:08:32;;;;;;;8.05;4.80;;;14.60;99.90;;;;;;4967647;28;20030;-77
2023/09/07 05:11:00;;;;;;;9.60;5.55;;;14.60;99.90;;;;;;4961923;28;21382;-77
2023/09/07 05:13:26;;;;;;;8.75;5.47;;;14.60;99.90;;;;;;4975396;28;20027;-76
2023/09/07 05:15:54;;;;;;;8.80;5.20;;;14.50;99.90;;;;;;4991224;28;20114;-77
2023/09/07 05:18:20;;;;;;;10.98;5.72;;;14.50;99.90;;;;;;4962578;28;20047;-78
2023/09/07 05:20:48;;;;;;;6.85;4.60;;;14.60;99.90;;;;;;4976596;28;20054;-78
2023/09/07 05:23:15;;;;;;;9.02;5.75;;;14.60;99.90;;;;;;4975737;28;20018;-78
2023/09/07 05:25:50;;;;;;;11.25;6.20;;;14.60;99.90;;;;;;4972496;28;20027;-77
2023/09/07 05:28:16;;;;;;;8.38;5.97;;;14.70;99.90;;;;;;4969817;28;20038;-78
2023/09/07 05:30:42;;;;;;;10.02;6.43;;;14.80;99.90;;;;;;4972543;28;20038;-77
2023/09/07 05:33:13;;;;;;;15.50;7.32;;;14.80;99.90;;;;;;4962822;28;20039;-75
2023/09/07 05:35:39;;;;;;;11.15;6.22;;;14.90;99.90;;;;;;4956189;28;20106;-71
2023/09/07 05:38:05;;;;;;;10.93;6.45;;;14.90;99.90;;;;;;4958178;28;20118;-71
2023/09/07 05:40:39;;;;;;;12.88;7.03;;;15.00;99.90;;;;;;4962055;28;20035;-71
2023/09/07 05:43:04;;;;;;;11.52;6.45;;;15.00;99.90;;;;;;4960611;28;20035;-72
2023/09/07 05:45:34;;;;;;;8.90;5.97;;;15.00;99.90;;;;;;4991211;28;20035;-72
2023/09/07 05:47:59;;;;;;;11.13;6.03;;;15.10;99.90;;;;;;4957905;28;20035;-71
2023/09/07 05:50:25;;;;;;;8.48;5.85;;;15.20;99.90;;;;;;4956711;28;20162;-72
2023/09/07 05:52:51;;;;;;;10.07;5.97;;;15.20;99.90;;;;;;4958744;28;20482;-71
2023/09/07 05:55:17;;;;;;;8.25;5.68;;;15.30;99.90;;;;;;4962259;28;20042;-72
2023/09/07 05:57:42;;;;;;;9.40;5.82;;;15.30;99.90;;;;;;4968357;28;20475;-78
2023/09/07 06:00:09;;;;;;;9.13;5.97;;;15.40;99.90;;;;;;4960286;28;20272;-78
2023/09/07 06:02:35;;;;;;;10.60;5.95;;;15.50;99.90;;;;;;4965837;28;20047;-78
2023/09/07 06:05:01;;;;;;;10.07;6.10;;;15.50;99.90;;;;;;4967205;28;20086;-77
2023/09/07 06:07:27;;;;;;;9.70;5.75;;;15.60;99.90;;;;;;4962267;28;20396;-78
2023/09/07 06:09:52;;;;;;;7.47;5.75;;;15.60;99.90;;;;;;4965393;28;20034;-78
2023/09/07 06:12:19;;;;;;;10.63;5.95;;;15.60;99.90;;;;;;4964579;28;20050;-76
2023/09/07 06:14:46;;;;;;;9.75;6.45;;;15.70;99.90;;;;;;4960767;28;20035;-77
2023/09/07 06:17:12;;;;;;;9.52;6.40;;;15.70;99.90;;;;;;4989699;28;20027;-76
2023/09/07 06:19:37;;;;;;;14.35;6.90;;;15.80;99.90;;;;;;4960017;28;20033;-77
2023/09/07 06:22:03;;;;;;;8.52;5.85;;;15.80;99.90;;;;;;4972699;28;20610;-78
2023/09/07 06:24:29;;;;;;;7.70;5.55;;;15.90;99.90;;;;;;4994195;28;20033;-79
2023/09/07 06:26:55;;;;;;;8.82;6.50;;;15.90;99.90;;;;;;4981789;28;20023;-78
2023/09/07 06:29:20;;;;;;;9.98;7.07;;;16.00;99.90;;;;;;5003178;28;20038;-77
2023/09/07 06:31:46;;;;;;;11.35;6.97;;;16.00;99.90;;;;;;4975523;28;20023;-78
2023/09/07 06:34:12;;;;;;;17.67;6.90;;;16.00;99.90;;;;;;4980421;28;20466;-78
2023/09/07 06:36:37;;;;;;;12.40;7.03;;;16.00;99.90;;;;;;4975460;28;20042;-76
2023/09/07 06:39:04;;;;;;;13.13;6.55;;;16.00;99.90;;;;;;4974003;28;20027;-79
2023/09/07 06:41:30;;;;;;;14.82;6.30;;;16.00;99.90;;;;;;4980072;28;20019;-78
2023/09/07 06:43:56;;;;;;;12.43;6.65;;;16.00;99.90;;;;;;4978133;28;20122;-78
2023/09/07 06:46:22;;;;;;;15.32;7.03;;;16.10;99.90;;;;;;4994633;28;20097;-77
2023/09/07 06:48:48;;;;;;;11.10;6.20;;;16.10;99.90;;;;;;4977780;28;20054;-78
2023/09/07 06:51:13;;;;;;;11.80;6.82;;;16.20;99.90;;;;;;4989680;28;20082;-79
2023/09/07 06:53:40;;;;;;;10.98;6.75;;;16.20;99.90;;;;;;4966600;28;20046;-75
2023/09/07 06:56:06;;;;;;;13.38;7.15;;;16.30;99.90;;;;;;4970264;28;20031;-76
2023/09/07 06:58:34;;;;;;;12.80;7.65;;;16.40;99.90;;;;;;4969205;28;20053;-74
2023/09/07 07:01:00;;;;;;;11.60;6.78;;;16.40;99.90;;;;;;4969443;28;20398;-75
2023/09/07 07:03:30;;;;;;;10.82;6.40;;;16.50;99.90;;;;;;4993691;28;20027;-75
2023/09/07 07:05:57;;;;;;;12.30;7.10;;;16.50;99.90;;;;;;4982673;28;20037;-75
2023/09/07 07:08:23;;;;;;;15.23;7.47;;;16.60;99.90;;;;;;4969519;28;20034;-76
2023/09/07 07:10:49;;;;;;;9.70;6.25;;;16.70;99.90;;;;;;4965537;28;20031;-75
2023/09/07 07:13:14;;;;;;;10.93;6.82;;;16.70;99.90;;;;;;4967064;28;20057;-75
2023/09/07 07:15:40;;;;;;;13.30;6.60;;;16.80;99.90;;;;;;4961884;28;20067;-76
2023/09/07 07:18:08;;;;;;;10.88;5.82;;;16.80;99.90;;;;;;4999305;28;20050;-75
2023/09/07 07:20:43;;;;;;;10.40;6.47;;;16.90;99.90;;;;;;4982173;28;20027;-77
2023/09/07 07:23:10;;;;;;;10.32;6.45;;;17.00;99.90;;;;;;4962958;28;20031;-75
2023/09/07 07:25:36;;;;;;;12.40;6.45;;;17.00;99.90;;;;;;4966985;28;20039;-75
2023/09/07 07:28:06;;;;;;;13.57;6.40;;;17.10;99.90;;;;;;4976485;28;20114;-76
2023/09/07 07:30:42;;;;;;;12.68;5.57;;;17.20;99.90;;;;;;4963077;28;20106;-77
2023/09/07 07:33:09;;;;;;;7.40;5.70;;;17.30;99.90;;;;;;4961266;28;20035;-74
2023/09/07 07:35:35;;;;;;;12.23;6.03;;;17.30;99.90;;;;;;4967592;28;20030;-73
2023/09/07 07:38:04;;;;;;;10.50;5.78;;;17.40;99.90;;;;;;4992971;28;20041;-72
2023/09/07 07:40:30;;;;;;;9.48;6.22;;;17.40;99.90;;;;;;4958917;28;20046;-77
2023/09/07 07:42:56;;;;;;;7.90;6.07;;;17.50;99.90;;;;;;4962350;28;20033;-75
2023/09/07 07:45:21;;;;;;;11.38;6.30;;;17.60;99.90;;;;;;4962293;28;20027;-76
2023/09/07 07:47:51;;;;;;;12.18;6.00;;;17.70;99.90;;;;;;4982456;28;20020;-74
2023/09/07 07:50:17;;;;;;;11.98;5.90;;;17.80;99.90;;;;;;4963965;28;20031;-75
2023/09/07 07:52:43;;;;;;;10.98;6.65;;;17.90;99.90;;;;;;4967065;28;20023;-74
2023/09/07 07:55:10;;;;;;;11.00;6.20;;;17.90;99.90;;;;;;4963635;28;20394;-75
2023/09/07 07:57:35;;;;;;;11.48;6.40;;;18.00;99.90;;;;;;4979639;28;20037;-74
2023/09/07 08:00:03;;;;;;;9.70;6.30;;;18.10;99.90;;;;;;4964944;28;20043;-75
2023/09/07 08:02:30;;;;;;;10.65;6.72;;;18.10;99.90;;;;;;4962942;28;20027;-73
2023/09/07 08:04:55;;;;;;;9.15;7.25;;;18.20;99.90;;;;;;4956552;28;20725;-75
2023/09/07 08:07:21;;;;;;;15.95;6.50;;;18.30;99.90;;;;;;4963113;28;20039;-72
2023/09/07 08:09:47;;;;;;;9.82;6.50;;;18.30;99.90;;;;;;4964988;28;20482;-74
2023/09/07 08:12:15;;;;;;;12.20;7.03;;;18.40;99.90;;;;;;4960910;28;20027;-75
2023/09/07 08:14:44;;;;;;;15.30;7.10;;;18.40;99.90;;;;;;5001804;28;20027;-82
2023/09/07 08:17:09;;;;;;;14.70;7.10;;;18.40;99.90;;;;;;4991999;23;20038;-75
2023/09/07 08:19:44;;;;;;;11.85;6.55;;;18.50;99.90;;;;;;4980903;28;20554;-76
2023/09/07 08:22:16;;;;;;;10.82;7.05;;;18.50;99.90;;;;;;4982274;28;20030;-76
2023/09/07 08:24:44;;;;;;;13.13;6.45;;;18.60;99.90;;;;;;4991262;28;20025;-75
2023/09/07 08:27:18;;;;;;;8.43;5.82;;;18.60;99.90;;;;;;4982373;28;20026;-76
2023/09/07 08:29:47;;;;;;;14.57;6.45;;;18.70;99.90;;;;;;4983588;28;20343;-75
2023/09/07 08:32:14;;;;;;;8.20;6.15;;;18.80;99.90;;;;;;4987929;28;20026;-75
2023/09/07 08:34:41;;;;;;;9.75;6.38;;;18.80;99.90;;;;;;4987399;28;20065;-74
2023/09/07 08:37:13;;;;;;;7.93;6.13;;;18.90;99.90;;;;;;4987264;28;20030;-74
2023/09/07 08:39:41;;;;;;;7.63;6.13;;;18.90;99.90;;;;;;4983977;28;20161;-76
2023/09/07 08:42:13;;;;;;;11.13;6.32;;;19.00;99.90;;;;;;4979093;28;20512;-76
2023/09/07 08:44:42;;;;;;;9.95;6.03;;;19.10;99.90;;;;;;4997503;28;20050;-76
2023/09/07 08:47:08;;;;;;;9.38;6.03;;;19.10;99.90;;;;;;4978666;28;20031;-76
2023/09/07 08:49:34;;;;;;;11.73;5.88;;;19.20;99.90;;;;;;4985076;28;20072;-76
2023/09/07 08:52:08;;;;;;;14.07;7.25;;;19.30;99.90;;;;;;4985036;28;20089;-75
2023/09/07 08:54:35;;;;;;;8.95;7.10;;;19.40;99.90;;;;;;4989243;28;20032;-76
2023/09/07 08:57:05;;;;;;;9.88;6.53;;;19.50;99.90;;;;;;4988353;28;20027;-76
2023/09/07 08:59:30;;;;;;;8.60;6.55;;;19.50;99.90;;;;;;4982560;28;20052;-75
2023/09/07 09:01:58;;;;;;;10.50;7.22;;;19.60;99.90;;;;;;4980844;28;20047;-76
2023/09/07 09:04:24;;;;;;;11.60;6.85;;;19.70;99.90;;;;;;4986422;28;20129;-77
2023/09/07 09:06:53;;;;;;;9.38;6.28;;;19.70;99.90;;;;;;4988610;28;20077;-74
2023/09/07 09:09:28;;;;;;;7.35;6.25;;;19.80;99.90;;;;;;4998809;28;20149;-76
2023/09/07 09:12:09;;;;;;;7.72;6.25;;;19.90;99.90;;;;;;4982156;28;20498;-75
2023/09/07 09:14:35;;;;;;;7.95;6.32;;;20.00;99.90;;;;;;4983633;28;20499;-75
2023/09/07 09:17:01;;;;;;;11.95;6.47;;;20.00;99.90;;;;;;4986225;28;20031;-76
2023/09/07 09:19:31;;;;;;;8.02;5.88;;;20.10;99.90;;;;;;4984467;28;20026;-76
2023/09/07 09:21:58;;;;;;;7.55;5.85;;;20.20;99.90;;;;;;4990554;28;20049;-76
2023/09/07 09:24:26;;;;;;;8.45;6.20;;;20.30;99.90;;;;;;4982861;28;20022;-76
2023/09/07 09:26:52;;;;;;;8.48;6.15;;;20.40;99.90;;;;;;4978703;28;20027;-76
2023/09/07 09:29:23;;;;;;;10.25;5.72;;;20.40;99.90;;;;;;4983912;28;20034;-75
2023/09/07 09:31:49;;;;;;;9.15;5.65;;;20.50;99.90;;;;;;4982925;28;20548;-76
2023/09/07 09:34:15;;;;;;;9.13;6.28;;;20.60;99.90;;;;;;4981674;28;20047;-77
2023/09/07 09:36:43;;;;;;;7.70;6.10;;;20.60;99.90;;;;;;4984552;28;20038;-76
2023/09/07 09:39:09;;;;;;;8.40;6.38;;;20.70;99.90;;;;;;4987833;28;20421;-77
2023/09/07 09:41:35;;;;;;;8.77;6.10;;;20.70;99.90;;;;;;4984971;28;20033;-76
2023/09/07 09:44:03;;;;;;;9.82;5.53;;;20.80;99.90;;;;;;4981960;28;20028;-76
2023/09/07 09:46:33;;;;;;;12.60;6.15;;;20.80;99.90;;;;;;4987003;28;20034;-76
2023/09/07 09:49:00;;;;;;;9.50;5.97;;;20.90;99.90;;;;;;4983460;28;20022;-77
2023/09/07 09:51:28;;;;;;;9.40;5.72;;;20.90;99.90;;;;;;4985046;28;20049;-75
2023/09/07 09:53:57;;;;;;;8.50;5.53;;;21.00;99.90;;;;;;4980464;28;20046;-75
2023/09/07 09:56:25;;;;;;;9.52;6.22;;;21.00;99.90;;;;;;4979276;28;20015;-77
2023/09/07 09:58:51;;;;;;;7.90;6.63;;;21.10;99.90;;;;;;4983927;28;20018;-76
2023/09/07 10:01:16;;;;;;;8.52;5.88;;;21.20;99.90;;;;;;4986655;28;20030;-76
2023/09/07 10:03:47;;;;;;;7.60;5.78;;;21.30;99.90;;;;;;4980102;28;20031;-76
2023/09/07 10:06:21;;;;;;;10.35;5.82;;;21.30;99.90;;;;;;4985024;28;20477;-74
2023/09/07 10:09:10;;;;;;;8.77;5.35;;;21.40;99.90;;;;;;4984563;28;20022;-76
2023/09/07 10:11:39;;;;;;;7.80;6.07;;;21.50;99.90;;;;;;4981230;28;20031;-77
2023/09/07 10:14:07;;;;;;;5.93;5.10;;;21.50;99.90;;;;;;4979666;28;20023;-76
2023/09/07 10:17:04;;;;;;;7.47;5.55;;;21.60;99.90;;;;;;4987095;28;20108;-77
2023/09/07 10:19:29;;;;;;;11.82;5.07;;;21.70;99.90;;;;;;4978365;28;20027;-76
2023/09/07 10:21:56;;;;;;;8.27;5.45;;;21.80;99.90;;;;;;4981945;28;20034;-76
2023/09/07 10:24:39;;;;;;;11.20;5.40;;;21.80;99.90;;;;;;4984910;28;20084;-75
2023/09/07 10:27:06;;;;;;;8.95;6.03;;;22.00;99.90;;;;;;4982137;28;20089;-75
2023/09/07 10:29:43;;;;;;;11.43;6.10;;;22.10;99.90;;;;;;4982267;28;20031;-77
2023/09/07 10:32:14;;;;;;;12.65;6.40;;;22.20;99.90;;;;;;4977267;28;20030;-77
2023/09/07 10:34:43;;;;;;;11.07;5.40;;;22.40;99.90;;;;;;4994727;28;20030;-76
2023/09/07 10:37:29;;;;;;;7.05;6.10;;;22.40;99.90;;;;;;4982089;28;20026;-76
2023/09/07 10:39:56;;;;;;;14.32;6.03;;;22.50;99.90;;;;;;4985731;28;20444;-76
2023/09/07 10:42:25;;;;;;;8.32;5.88;;;22.50;99.90;;;;;;4986033;28;20366;-77
2023/09/07 10:44:52;;;;;;;11.05;6.53;;;22.60;99.90;;;;;;4980746;28;20399;-77
2023/09/07 10:47:18;;;;;;;10.88;6.22;;;22.70;99.90;;;;;;4977366;28;20041;-75
2023/09/07 10:49:44;;;;;;;7.93;5.50;;;22.80;99.90;;;;;;4997406;28;20022;-77
2023/09/07 10:52:10;;;;;;;10.70;5.25;;;22.80;99.90;;;;;;4978776;28;20085;-76
2023/09/07 10:54:36;;;;;;;7.03;5.13;;;22.80;99.90;;;;;;4980728;28;20065;-76
2023/09/07 10:57:14;;;;;;;7.20;5.07;;;22.90;99.90;;;;;;4979658;28;20034;-75
2023/09/07 10:59:49;;;;;;;6.65;5.40;;;23.00;99.90;;;;;;4981041;28;20034;-75
2023/09/07 11:02:15;;;;;;;8.88;5.78;;;23.10;99.90;;;;;;4976160;28;20446;-76
2023/09/07 11:04:41;;;;;;;9.60;5.85;;;23.20;99.90;;;;;;4980208;28;20034;-76
2023/09/07 11:07:07;;;;;;;11.02;5.53;;;23.30;99.90;;;;;;4981128;28;20417;-77
2023/09/07 11:09:33;;;;;;;10.18;6.93;;;23.30;99.90;;;;;;4978973;28;20033;-74
2023/09/07 11:12:08;;;;;;;9.90;5.30;;;23.30;99.90;;;;;;4981721;28;20035;-77
2023/09/07 11:14:33;;;;;;;9.23;5.60;;;23.30;99.90;;;;;;4985165;28;20436;-76
2023/09/07 11:17:05;;;;;;;6.25;5.15;;;23.50;99.90;;;;;;4980897;28;20085;-76
2023/09/07 11:19:34;;;;;;;10.98;5.97;;;23.50;99.90;;;;;;4978427;28;20023;-76
2023/09/07 11:22:00;;;;;;;10.82;5.88;;;23.60;99.90;;;;;;4983239;28;20023;-76
2023/09/07 11:24:29;;;;;;;12.48;5.90;;;23.70;99.90;;;;;;4980245;28;20473;-76
2023/09/07 11:26:58;;;;;;;9.88;5.47;;;23.80;99.90;;;;;;5001076;28;20019;-76
2023/09/07 11:29:24;;;;;;;6.88;5.13;;;23.90;99.90;;;;;;4978109;28;20019;-76
2023/09/07 11:31:50;;;;;;;7.93;5.20;;;24.00;99.90;;;;;;4982282;28;20027;-76
2023/09/07 11:34:15;;;;;;;6.90;5.40;;;24.10;99.90;;;;;;4982651;28;20030;-74
2023/09/07 11:36:44;;;;;;;12.60;5.85;;;24.10;99.90;;;;;;4984913;28;20043;-76
2023/09/07 11:39:16;;;;;;;12.95;5.25;;;24.20;99.90;;;;;;4982342;28;20077;-75
2023/09/07 11:41:43;;;;;;;19.88;5.70;;;24.20;99.90;;;;;;4997518;28;20116;-77
2023/09/07 11:44:09;;;;;;;11.00;4.88;;;24.20;99.90;;;;;;4992448;28;20031;-76
2023/09/07 11:46:35;;;;;;;5.43;4.70;;;24.20;99.90;;;;;;4982094;28;20030;-76
2023/09/07 11:49:01;;;;;;;6.28;5.05;;;24.30;99.90;;;;;;4977800;28;20027;-76
2023/09/07 11:51:26;;;;;;;9.80;5.28;;;24.30;99.90;;;;;;4978277;28;20479;-75
2023/09/07 11:53:55;;;;;;;6.60;5.00;;;24.40;99.90;;;;;;4981004;28;20081;-76
2023/09/07 11:56:20;;;;;;;7.70;5.05;;;24.50;99.90;;;;;;4982752;28;20030;-75
2023/09/07 11:58:49;;;;;;;8.30;4.90;;;24.50;99.90;;;;;;4982443;28;20072;-76
2023/09/07 12:01:17;;;;;;;7.68;5.40;;;24.50;99.90;;;;;;4988196;28;20033;-75
2023/09/07 12:03:44;;;;;;;6.93;5.50;;;24.60;99.90;;;;;;4986884;28;20030;-72
2023/09/07 12:06:10;;;;;;;8.45;5.50;;;24.70;99.90;;;;;;4989256;28;20031;-76
2023/09/07 12:08:43;;;;;;;8.75;5.22;;;24.80;99.90;;;;;;4986714;28;20093;-75
2023/09/07 12:11:08;;;;;;;10.15;5.65;;;24.80;99.90;;;;;;4985777;28;20124;-76
2023/09/07 12:13:34;;;;;;;8.48;5.45;;;24.90;99.80;;;;;;4982774;28;20483;-77
2023/09/07 12:16:02;;;;;;;7.35;5.57;;;24.90;99.80;;;;;;4983543;28;20466;-76
2023/09/07 12:18:28;;;;;;;7.43;5.43;;;25.00;99.80;;;;;;4983234;28;20023;-76
2023/09/07 12:20:57;;;;;;;8.73;5.53;;;25.00;99.80;;;;;;4985207;28;20025;-76
2023/09/07 12:23:23;;;;;;;6.15;5.30;;;25.00;99.70;;;;;;4977512;28;20026;-72
2023/09/07 12:25:51;;;;;;;7.20;5.25;;;25.10;99.60;;;;;;4982711;28;20023;-76
2023/09/07 12:28:20;;;;;;;8.48;4.97;;;25.20;99.40;;;;;;4986760;28;20096;-76
2023/09/07 12:30:46;;;;;;;5.60;5.00;;;25.20;99.50;;;;;;4984724;28;20641;-77
2023/09/07 12:33:11;;;;;;;10.43;6.18;;;25.30;99.10;;;;;;4995757;28;20023;-76
2023/09/07 12:35:37;;;;;;;9.00;5.40;;;25.30;99.00;;;;;;4983860;28;20456;-76
2023/09/07 12:38:11;;;;;;;9.43;5.80;;;25.40;99.10;;;;;;4982619;28;20027;-76
2023/09/07 12:40:36;;;;;;;;;;;25.40;98.90;;;;;;4983622;28;20023;-75
2023/09/07 12:43:02;;;;;;;8.00;5.22;;;25.40;98.70;;;;;;4986256;28;19913;-75